Time;durP1;ratioP1;P1;durP2;ratioP2;P2;SDS_P1;SDS_P2;PMS_P1;PMS_P2;Temp;Humidity;BMP_temperature;BMP_pressure;BME280_temperature;BME280_humidity;BME280_pressure;Samples;Min_cycle;Max_cycle;Signal;HPM_P1;HPM_P2
2022/09/05 00:00:14;;;;;;;4.30;1.83;;;19.60;83.70;;;;;;2067324;28;20300;-89
2022/09/05 00:01:45;;;;;;;5.80;2.17;;;19.60;83.60;;;;;;2066123;28;20362;-89
2022/09/05 00:02:48;;;;;;;8.68;2.55;;;19.60;83.80;;;;;;2086364;28;20253;-89
2022/09/05 00:04:04;;;;;;;5.40;2.40;;;19.60;83.70;;;;;;2083885;28;20740;-89
2022/09/05 00:05:27;;;;;;;5.05;2.17;;;19.60;83.60;;;;;;2079216;28;20274;-89
2022/09/05 00:06:35;;;;;;;4.88;2.35;;;19.60;83.60;;;;;;2080859;28;20294;-89
2022/09/05 00:07:53;;;;;;;4.10;2.35;;;19.60;83.60;;;;;;2085316;28;20029;-89
2022/09/05 00:09:03;;;;;;;5.10;2.70;;;19.60;83.60;;;;;;2090173;28;20270;-89
2022/09/05 00:10:24;;;;;;;4.20;2.17;;;19.60;83.60;;;;;;2093379;28;20324;-89
2022/09/05 00:11:52;;;;;;;4.60;2.00;;;19.60;83.60;;;;;;2094167;28;20335;-89
2022/09/05 00:12:57;;;;;;;4.80;2.47;;;19.60;83.60;;;;;;2095076;28;20273;-89
2022/09/05 00:14:32;;;;;;;5.30;2.50;;;19.60;83.60;;;;;;2084447;28;20298;-89
2022/09/05 00:15:48;;;;;;;4.85;2.40;;;19.60;83.50;;;;;;2083439;28;20266;-89
2022/09/05 00:17:07;;;;;;;5.13;2.20;;;19.60;83.60;;;;;;2085017;28;20570;-89
2022/09/05 00:18:16;;;;;;;4.82;2.28;;;19.60;84.10;;;;;;2093789;28;20272;-89
2022/09/05 00:19:42;;;;;;;3.55;2.30;;;19.60;83.80;;;;;;2091358;28;20593;-89
2022/09/05 00:21:10;;;;;;;6.63;2.10;;;19.60;83.90;;;;;;2086169;28;20605;-89
2022/09/05 00:22:49;;;;;;;8.38;2.75;;;19.60;83.70;;;;;;2081845;28;20651;-89
2022/09/05 00:24:16;;;;;;;6.57;2.60;;;19.60;84.00;;;;;;2059861;28;20280;-89
2022/09/05 00:25:29;;;;;;;5.47;2.40;;;19.60;84.10;;;;;;2089697;28;20266;-89
2022/09/05 00:26:53;;;;;;;6.15;2.42;;;19.60;84.00;;;;;;2086058;28;20632;-89
2022/09/05 00:28:00;;;;;;;5.88;2.30;;;19.60;84.10;;;;;;2079312;28;20707;-89
2022/09/05 00:29:17;;;;;;;5.43;2.33;;;19.60;85.00;;;;;;2083151;28;20338;-89
2022/09/05 00:30:20;;;;;;;7.00;2.60;;;19.60;84.60;;;;;;2108643;28;20253;-88
2022/09/05 00:31:49;;;;;;;4.47;2.30;;;19.50;84.50;;;;;;2099009;28;20291;-89
2022/09/05 00:32:50;;;;;;;7.28;2.47;;;19.50;84.70;;;;;;2082095;28;20323;-89
2022/09/05 00:34:00;;;;;;;5.25;2.40;;;19.50;84.70;;;;;;2082671;28;20266;-89
2022/09/05 00:35:06;;;;;;;4.60;2.50;;;19.50;84.70;;;;;;2089077;28;20077;-89
2022/09/05 00:36:13;;;;;;;7.13;3.00;;;19.50;84.40;;;;;;2098826;28;20257;-89
2022/09/05 00:37:45;;;;;;;7.88;2.88;;;19.50;84.30;;;;;;2091536;28;20344;-89
2022/09/05 00:38:57;;;;;;;4.22;2.33;;;19.50;84.50;;;;;;2084802;28;20339;-89
2022/09/05 00:40:31;;;;;;;5.97;2.08;;;19.50;84.40;;;;;;2088790;28;20354;-89
2022/09/05 00:41:33;;;;;;;5.82;2.47;;;19.50;85.20;;;;;;2094325;28;20047;-87
2022/09/05 00:42:33;;;;;;;4.65;2.35;;;19.50;84.90;;;;;;2082503;28;20267;-89
2022/09/05 00:43:39;;;;;;;7.23;2.20;;;19.50;84.60;;;;;;2091405;28;20120;-88
2022/09/05 00:44:59;;;;;;;5.97;2.60;;;19.50;84.80;;;;;;2091896;28;20028;-89
2022/09/05 00:46:12;;;;;;;4.63;2.40;;;19.50;84.80;;;;;;2085662;28;20721;-89
2022/09/05 00:47:51;;;;;;;8.63;2.92;;;19.50;84.80;;;;;;2091123;28;20311;-89
2022/09/05 00:49:07;;;;;;;7.72;2.38;;;19.50;84.60;;;;;;2076429;28;20266;-89
2022/09/05 00:50:33;;;;;;;6.53;2.30;;;19.50;84.70;;;;;;2095295;28;20272;-89
2022/09/05 00:51:36;;;;;;;8.15;2.55;;;19.50;85.20;;;;;;2087433;28;20265;-89
2022/09/05 00:53:02;;;;;;;6.50;2.58;;;19.50;84.80;;;;;;2091767;28;20304;-89
2022/09/05 00:54:39;;;;;;;9.02;2.35;;;19.50;84.70;;;;;;2100956;28;20748;-89
2022/09/05 00:56:03;;;;;;;6.03;2.17;;;19.50;84.50;;;;;;2095201;28;20261;-89
2022/09/05 00:57:37;;;;;;;4.68;2.30;;;19.50;85.00;;;;;;2085810;28;20282;-89
2022/09/05 00:58:49;;;;;;;7.15;2.05;;;19.50;85.30;;;;;;2083702;28;20349;-88
2022/09/05 00:59:56;;;;;;;;;;;19.50;85.40;;;;;;2086624;28;20263;-89
2022/09/05 01:00:58;;;;;;;5.45;2.05;;;19.50;85.00;;;;;;2090969;28;19905;-89
2022/09/05 01:02:13;;;;;;;3.92;2.05;;;19.50;84.80;;;;;;2083291;28;20337;-89
2022/09/05 01:03:29;;;;;;;2.63;1.77;;;19.50;85.30;;;;;;2087033;28;20262;-89
2022/09/05 01:05:17;;;;;;;6.43;1.75;;;19.40;85.20;;;;;;2093259;28;20258;-89
2022/09/05 01:06:32;;;;;;;4.88;1.63;;;19.50;84.90;;;;;;2084245;28;20404;-89
2022/09/05 01:08:00;;;;;;;5.03;1.63;;;19.50;85.10;;;;;;2078553;28;20270;-89
2022/09/05 01:09:11;;;;;;;8.45;1.65;;;19.50;85.20;;;;;;2093011;28;20276;-89
2022/09/05 01:10:48;;;;;;;4.32;1.40;;;19.40;84.90;;;;;;2099473;28;20315;-89
2022/09/05 01:12:17;;;;;;;4.07;1.20;;;19.40;84.90;;;;;;2087612;28;20282;-89
2022/09/05 01:13:39;;;;;;;4.35;1.48;;;19.40;84.80;;;;;;2089091;28;20277;-89
2022/09/05 01:14:53;;;;;;;3.45;1.20;;;19.40;84.50;;;;;;2102274;28;20284;-89
2022/09/05 01:16:22;;;;;;;4.57;1.30;;;19.40;85.00;;;;;;2098200;28;20151;-89
2022/09/05 01:17:57;;;;;;;3.75;1.23;;;19.40;84.50;;;;;;2091018;28;20278;-89
2022/09/05 01:19:17;;;;;;;3.03;1.35;;;19.40;84.70;;;;;;2083840;28;20265;-89
2022/09/05 01:20:38;;;;;;;4.60;1.25;;;19.40;84.50;;;;;;2093514;28;20266;-89
2022/09/05 01:22:07;;;;;;;4.38;1.25;;;19.40;84.50;;;;;;2099887;28;20264;-89
2022/09/05 01:23:26;;;;;;;2.63;0.95;;;19.40;84.20;;;;;;2089670;28;20360;-88
2022/09/05 01:24:39;;;;;;;2.13;1.40;;;19.50;84.50;;;;;;2088713;28;20255;-89
2022/09/05 01:25:58;;;;;;;;;;;19.40;84.40;;;;;;2091435;28;20755;-89
2022/09/05 01:26:58;;;;;;;2.90;1.42;;;19.40;84.20;;;;;;2087576;28;19909;-88
2022/09/05 01:28:36;;;;;;;3.08;1.00;;;19.40;84.10;;;;;;2084797;28;20266;-88
2022/09/05 01:29:50;;;;;;;4.50;1.42;;;19.40;84.10;;;;;;2093570;28;20063;-89
2022/09/05 01:31:10;;;;;;;3.30;1.30;;;19.40;84.60;;;;;;2086367;28;20752;-88
2022/09/05 01:32:22;;;;;;;2.38;0.90;;;19.40;84.80;;;;;;2085406;28;20270;-88
2022/09/05 01:34:10;;;;;;;4.22;1.15;;;19.40;84.40;;;;;;2092667;28;20666;-90
2022/09/05 01:35:49;;;;;;;4.82;1.42;;;19.40;84.30;;;;;;2087037;28;20063;-89
2022/09/05 01:37:17;;;;;;;3.17;1.15;;;19.40;84.30;;;;;;2092493;28;20261;-89
2022/09/05 01:39:09;;;;;;;6.45;1.40;;;19.30;84.10;;;;;;2093940;28;20268;-88
2022/09/05 01:40:37;;;;;;;2.88;1.20;;;19.30;84.40;;;;;;2099686;28;20249;-89
2022/09/05 01:42:01;;;;;;;3.78;1.40;;;19.30;84.30;;;;;;2099097;28;20269;-89
2022/09/05 01:43:18;;;;;;;2.75;1.10;;;19.30;84.20;;;;;;2089599;28;20262;-89
2022/09/05 01:44:46;;;;;;;2.28;1.25;;;19.30;85.30;;;;;;2078730;28;20274;-89
2022/09/05 01:46:02;;;;;;;3.63;1.30;;;19.30;84.10;;;;;;2094771;28;20303;-89
2022/09/05 01:47:14;;;;;;;5.35;1.48;;;19.30;84.20;;;;;;2097942;28;20265;-89
2022/09/05 01:48:30;;;;;;;2.30;1.30;;;19.30;84.10;;;;;;2091708;28;20266;-89
2022/09/05 01:49:52;;;;;;;4.85;1.30;;;19.30;84.10;;;;;;2091748;28;20048;-89
2022/09/05 01:51:11;;;;;;;4.70;1.65;;;19.30;84.00;;;;;;2088314;28;20258;-89
2022/09/05 01:52:19;;;;;;;2.70;1.20;;;19.30;84.10;;;;;;2090506;28;20314;-89
2022/09/05 01:53:45;;;;;;;3.80;1.45;;;19.30;84.00;;;;;;2084014;28;20246;-89
2022/09/05 01:55:13;;;;;;;4.45;1.20;;;19.30;84.10;;;;;;2089469;28;20363;-89
2022/09/05 01:56:28;;;;;;;4.43;1.05;;;19.30;84.10;;;;;;2080662;28;20318;-89
2022/09/05 01:57:55;;;;;;;7.30;1.20;;;19.30;84.00;;;;;;2093382;28;20297;-89
2022/09/05 01:59:14;;;;;;;2.40;1.20;;;19.30;83.90;;;;;;2095613;28;20308;-89
2022/09/05 02:00:59;;;;;;;5.03;1.58;;;19.30;83.90;;;;;;2093220;28;20262;-89
2022/09/05 02:02:27;;;;;;;5.40;1.30;;;19.30;84.40;;;;;;2071877;28;20362;-89
2022/09/05 02:03:46;;;;;;;4.60;0.93;;;19.30;84.00;;;;;;2069578;28;20661;-89
2022/09/05 02:04:58;;;;;;;5.60;1.10;;;19.30;84.10;;;;;;2081867;28;20267;-89
2022/09/05 02:06:40;;;;;;;3.10;1.30;;;19.30;84.20;;;;;;2082110;28;20278;-89
2022/09/05 02:08:14;;;;;;;1.40;0.98;;;19.20;84.30;;;;;;2084329;28;20455;-90
2022/09/05 02:09:23;;;;;;;7.32;1.25;;;19.20;84.30;;;;;;2096137;28;20765;-89
2022/09/05 02:10:43;;;;;;;3.10;1.15;;;19.20;84.50;;;;;;2100211;28;20762;-89
2022/09/05 02:11:55;;;;;;;0.93;0.68;;;19.20;84.80;;;;;;2090714;28;20353;-88
2022/09/05 02:13:10;;;;;;;5.22;1.27;;;19.20;84.70;;;;;;2087630;28;20257;-89
2022/09/05 02:14:31;;;;;;;3.60;1.27;;;19.20;84.70;;;;;;2099175;28;20275;-89
2022/09/05 02:16:07;;;;;;;4.32;1.25;;;19.20;84.90;;;;;;2090646;28;20643;-89
2022/09/05 02:17:22;;;;;;;3.33;1.30;;;19.20;84.80;;;;;;2091916;28;20289;-89
2022/09/05 02:18:46;;;;;;;2.90;1.23;;;19.10;84.80;;;;;;2089452;28;20262;-89
2022/09/05 02:19:59;;;;;;;2.38;1.08;;;19.10;84.90;;;;;;2076866;28;20308;-89
2022/09/05 02:21:01;;;;;;;4.35;1.65;;;19.20;84.90;;;;;;2091915;28;20343;-89
2022/09/05 02:22:15;;;;;;;4.18;1.38;;;19.10;85.00;;;;;;2090872;28;20028;-89
2022/09/05 02:23:18;;;;;;;4.00;1.85;;;19.10;84.80;;;;;;2094264;28;20577;-89
2022/09/05 02:24:33;;;;;;;3.20;0.88;;;19.10;84.90;;;;;;2090800;28;20315;-89
2022/09/05 02:26:11;;;;;;;3.03;1.40;;;19.10;84.90;;;;;;2084230;28;20247;-89
2022/09/05 02:27:33;;;;;;;3.47;1.13;;;19.10;85.00;;;;;;2073445;28;20274;-89
2022/09/05 02:29:23;;;;;;;3.90;1.10;;;19.10;85.10;;;;;;2088918;28;20308;-89
2022/09/05 02:30:27;;;;;;;1.90;1.13;;;19.10;84.70;;;;;;2077830;28;20255;-88
2022/09/05 02:31:47;;;;;;;5.28;1.65;;;19.10;84.60;;;;;;2078414;28;20322;-88
2022/09/05 02:32:54;;;;;;;4.85;1.60;;;19.10;84.70;;;;;;2087560;28;20266;-88
2022/09/05 02:34:14;;;;;;;4.10;1.33;;;19.10;84.70;;;;;;2091603;28;20261;-88
2022/09/05 02:35:21;;;;;;;5.07;1.25;;;19.10;84.70;;;;;;2090557;28;20684;-89
2022/09/05 02:36:43;;;;;;;7.25;1.45;;;19.10;84.90;;;;;;2089555;28;20254;-89
2022/09/05 02:37:49;;;;;;;4.28;1.52;;;19.10;84.90;;;;;;2085189;28;20262;-89
2022/09/05 02:39:18;;;;;;;5.07;1.30;;;19.10;84.70;;;;;;2089537;28;20269;-89
2022/09/05 02:40:35;;;;;;;3.60;1.17;;;19.10;84.70;;;;;;2094344;28;20249;-88
2022/09/05 02:41:59;;;;;;;4.40;1.10;;;19.10;84.60;;;;;;2092423;28;20269;-89
2022/09/05 02:43:18;;;;;;;10.45;1.70;;;19.10;84.50;;;;;;2084616;28;20262;-90
2022/09/05 02:44:45;;;;;;;4.00;1.30;;;19.10;84.50;;;;;;2087224;28;20298;-89
2022/09/05 02:45:57;;;;;;;4.10;1.27;;;19.10;84.60;;;;;;2100799;28;20256;-89
2022/09/05 02:47:17;;;;;;;5.18;1.15;;;19.10;84.60;;;;;;2100554;28;20600;-89
2022/09/05 02:48:39;;;;;;;3.83;1.45;;;19.10;84.50;;;;;;2101582;28;20423;-89
2022/09/05 02:49:57;;;;;;;4.45;1.08;;;19.10;84.40;;;;;;2092376;28;20364;-88
2022/09/05 02:51:07;;;;;;;4.13;1.60;;;19.10;84.40;;;;;;2090417;28;20364;-89
2022/09/05 02:52:12;;;;;;;2.95;1.27;;;19.10;84.30;;;;;;2076424;28;20267;-88
2022/09/05 02:53:17;;;;;;;3.30;1.60;;;19.10;84.40;;;;;;2075398;28;20283;-89
2022/09/05 02:54:24;;;;;;;4.07;1.17;;;19.10;84.40;;;;;;2095091;28;20265;-89
2022/09/05 02:55:48;;;;;;;5.78;1.27;;;19.10;84.40;;;;;;2091363;28;20265;-89
2022/09/05 02:56:53;;;;;;;5.03;1.27;;;19.10;85.10;;;;;;2096952;28;20249;-89
2022/09/05 02:57:59;;;;;;;4.53;1.40;;;19.10;84.20;;;;;;2090776;28;20305;-89
2022/09/05 02:59:06;;;;;;;2.20;1.20;;;19.10;84.30;;;;;;2082862;28;20262;-89
2022/09/05 03:00:13;;;;;;;3.15;1.15;;;19.10;84.30;;;;;;2075756;28;20271;-89
2022/09/05 03:01:26;;;;;;;4.15;1.52;;;19.10;84.20;;;;;;2083240;28;20258;-89
2022/09/05 03:03:08;;;;;;;5.18;1.33;;;19.10;84.30;;;;;;2098819;28;20357;-88
2022/09/05 03:04:27;;;;;;;5.35;1.38;;;19.10;84.30;;;;;;2084081;28;20262;-89
2022/09/05 03:05:37;;;;;;;6.78;1.60;;;19.10;84.20;;;;;;2076472;28;20277;-89
2022/09/05 03:07:02;;;;;;;5.57;1.48;;;19.10;84.30;;;;;;2093050;28;20270;-89
2022/09/05 03:08:28;;;;;;;5.53;1.65;;;19.10;84.20;;;;;;2093575;28;20277;-89
2022/09/05 03:09:37;;;;;;;4.45;1.40;;;19.10;84.30;;;;;;2091050;28;20273;-89
2022/09/05 03:10:57;;;;;;;2.92;1.20;;;19.10;84.30;;;;;;2091515;28;20309;-89
2022/09/05 03:12:13;;;;;;;5.10;1.38;;;19.10;84.20;;;;;;2093065;28;20269;-89
2022/09/05 03:13:41;;;;;;;9.15;1.50;;;19.10;84.30;;;;;;2098342;28;20353;-89
2022/09/05 03:15:00;;;;;;;5.45;1.20;;;19.10;84.10;;;;;;2089455;28;20300;-89
2022/09/05 03:16:25;;;;;;;4.72;1.20;;;19.10;84.20;;;;;;2086118;28;20281;-88
2022/09/05 03:18:03;;;;;;;4.28;1.58;;;19.10;84.10;;;;;;2098545;28;20868;-89
2022/09/05 03:19:45;;;;;;;7.05;1.30;;;19.00;84.10;;;;;;2100311;28;20265;-89
2022/09/05 03:21:18;;;;;;;7.22;1.48;;;19.00;84.10;;;;;;2091498;28;20722;-89
2022/09/05 03:22:56;;;;;;;5.00;1.35;;;19.00;84.10;;;;;;2083271;28;20280;-89
2022/09/05 03:24:20;;;;;;;5.35;1.20;;;19.00;84.10;;;;;;2085372;28;20040;-89
2022/09/05 03:25:35;;;;;;;4.65;1.10;;;19.00;84.00;;;;;;2081836;28;20593;-89
2022/09/05 03:27:20;;;;;;;2.85;1.33;;;19.00;84.00;;;;;;2092002;28;20258;-89
2022/09/05 03:28:49;;;;;;;7.03;1.90;;;19.00;84.00;;;;;;2085542;28;20272;-89
2022/09/05 03:30:11;;;;;;;5.35;1.05;;;19.00;84.10;;;;;;2083149;28;20276;-89
2022/09/05 03:31:31;;;;;;;6.55;1.48;;;19.00;84.10;;;;;;2083200;28;20719;-88
2022/09/05 03:32:47;;;;;;;3.95;1.60;;;19.00;84.00;;;;;;2086296;28;20729;-89
2022/09/05 03:34:09;;;;;;;5.63;1.65;;;19.00;84.00;;;;;;2087767;28;20801;-89
2022/09/05 03:35:47;;;;;;;5.85;1.90;;;19.00;84.00;;;;;;2097621;28;20314;-89
2022/09/05 03:37:12;;;;;;;4.03;1.33;;;19.00;83.90;;;;;;2103420;28;20256;-89
2022/09/05 03:38:32;;;;;;;5.47;1.20;;;19.00;84.00;;;;;;2092290;28;20394;-89
2022/09/05 03:39:51;;;;;;;3.67;1.50;;;18.90;83.90;;;;;;2088639;28;20258;-88
2022/09/05 03:41:08;;;;;;;4.32;1.25;;;18.90;83.90;;;;;;2086196;28;20278;-89
2022/09/05 03:42:27;;;;;;;4.35;1.73;;;18.90;84.00;;;;;;2084731;28;20300;-89
2022/09/05 03:43:29;;;;;;;7.72;1.48;;;18.90;83.90;;;;;;2092672;28;20308;-89
2022/09/05 03:44:48;;;;;;;;;;;18.90;83.90;;;;;;2100729;28;20254;-89
2022/09/05 03:46:16;;;;;;;3.60;0.90;;;18.90;83.90;;;;;;2094515;28;20361;-89
2022/09/05 03:47:40;;;;;;;5.95;1.38;;;18.90;83.80;;;;;;2094792;28;20269;-89
2022/09/05 03:49:11;;;;;;;4.20;1.27;;;18.90;83.80;;;;;;2086672;28;20273;-89
2022/09/05 03:50:37;;;;;;;4.03;1.30;;;18.90;83.80;;;;;;2086684;28;20629;-89
2022/09/05 03:51:49;;;;;;;5.50;1.70;;;18.90;83.80;;;;;;2098424;28;20769;-89
2022/09/05 03:53:04;;;;;;;11.85;1.83;;;18.80;83.70;;;;;;2101711;28;20360;-88
2022/09/05 03:54:14;;;;;;;7.00;1.50;;;18.80;83.70;;;;;;2086184;28;20037;-88
2022/09/05 03:55:24;;;;;;;6.35;1.30;;;18.80;83.70;;;;;;2087721;28;20258;-89
2022/09/05 03:56:52;;;;;;;3.85;1.70;;;18.80;83.80;;;;;;2083711;28;20262;-88
2022/09/05 03:58:28;;;;;;;7.80;1.85;;;18.80;83.80;;;;;;2090766;28;20355;-89
2022/09/05 04:00:13;;;;;;;8.32;1.70;;;18.80;83.70;;;;;;2085199;28;20433;-88
2022/09/05 04:01:21;;;;;;;4.38;1.45;;;18.80;83.60;;;;;;2087986;28;20286;-90
2022/09/05 04:02:27;;;;;;;6.25;1.50;;;18.80;83.60;;;;;;2080527;28;20250;-88
2022/09/05 04:03:38;;;;;;;5.57;1.50;;;18.80;83.50;;;;;;2085483;28;20614;-89
2022/09/05 04:04:41;;;;;;;5.32;1.20;;;18.80;83.60;;;;;;2100033;28;20272;-88
2022/09/05 04:05:49;;;;;;;10.13;1.73;;;18.80;83.60;;;;;;2088998;28;20283;-89
2022/09/05 04:06:53;;;;;;;4.57;1.42;;;18.80;83.40;;;;;;2085019;28;20344;-89
2022/09/05 04:08:19;;;;;;;8.25;1.77;;;18.80;83.60;;;;;;2092655;28;20347;-89
2022/09/05 04:09:44;;;;;;;5.78;1.33;;;18.80;83.60;;;;;;2097675;28;20304;-89
2022/09/05 04:10:59;;;;;;;4.72;1.83;;;18.80;83.50;;;;;;2089711;28;20650;-89
2022/09/05 04:12:15;;;;;;;6.35;1.55;;;18.80;83.60;;;;;;2086279;28;20605;-89
2022/09/05 04:13:34;;;;;;;6.85;1.38;;;18.80;83.60;;;;;;2093398;28;20316;-89
2022/09/05 04:15:13;;;;;;;6.30;2.33;;;18.80;83.60;;;;;;2085832;28;20282;-89
2022/09/05 04:16:23;;;;;;;5.10;1.40;;;18.80;83.60;;;;;;2100813;28;20292;-89
2022/09/05 04:17:40;;;;;;;5.40;1.08;;;18.80;84.10;;;;;;2089142;28;20293;-89
2022/09/05 04:18:55;;;;;;;8.93;1.50;;;18.80;83.60;;;;;;2087845;28;20255;-88
2022/09/05 04:20:37;;;;;;;5.20;1.20;;;18.80;83.50;;;;;;2085108;28;20277;-89
2022/09/05 04:21:47;;;;;;;7.88;1.50;;;18.80;83.60;;;;;;2080299;28;20261;-89
2022/09/05 04:23:01;;;;;;;5.28;1.58;;;18.80;83.50;;;;;;2089371;28;20269;-89
2022/09/05 04:24:01;;;;;;;5.63;1.48;;;18.80;83.50;;;;;;2087078;28;20333;-89
2022/09/05 04:25:23;;;;;;;4.93;1.15;;;18.80;83.70;;;;;;2091533;28;20285;-89
2022/09/05 04:26:53;;;;;;;5.78;1.50;;;18.80;83.60;;;;;;2094401;28;20025;-89
2022/09/05 04:28:15;;;;;;;3.35;1.15;;;18.80;83.50;;;;;;2090710;28;20588;-88
2022/09/05 04:29:53;;;;;;;4.50;1.10;;;18.80;83.50;;;;;;2085392;28;20724;-89
2022/09/05 04:31:04;;;;;;;2.88;1.15;;;18.80;83.50;;;;;;2093098;28;20311;-89
2022/09/05 04:32:15;;;;;;;6.22;1.48;;;18.70;83.40;;;;;;2091520;28;20258;-89
2022/09/05 04:33:34;;;;;;;6.53;1.70;;;18.70;83.50;;;;;;2085851;28;20345;-89
2022/09/05 04:34:43;;;;;;;8.43;1.80;;;18.70;83.50;;;;;;2085761;28;20277;-89
2022/09/05 04:36:18;;;;;;;6.40;1.63;;;18.70;83.40;;;;;;2084837;28;20293;-89
2022/09/05 04:37:37;;;;;;;4.82;1.80;;;18.70;83.50;;;;;;2082214;28;20292;-89
2022/09/05 04:38:40;;;;;;;4.53;1.70;;;18.70;83.50;;;;;;2091887;28;20263;-89
2022/09/05 04:39:42;;;;;;;4.82;2.05;;;18.70;83.60;;;;;;2091654;28;20258;-89
2022/09/05 04:40:48;;;;;;;3.30;1.70;;;18.70;83.60;;;;;;2091579;28;20328;-89
2022/09/05 04:41:51;;;;;;;6.82;1.67;;;18.60;83.60;;;;;;2091349;28;20399;-89
2022/09/05 04:42:52;;;;;;;7.35;2.10;;;18.70;83.60;;;;;;2090369;28;20304;-89
2022/09/05 04:44:13;;;;;;;8.13;1.80;;;18.60;83.50;;;;;;2082452;28;20353;-89
2022/09/05 04:45:17;;;;;;;5.95;1.73;;;18.60;83.50;;;;;;2088661;28;20398;-89
2022/09/05 04:46:39;;;;;;;4.15;1.77;;;18.60;83.50;;;;;;2091660;28;20258;-88
2022/09/05 04:47:46;;;;;;;4.72;1.70;;;18.60;83.50;;;;;;2094562;28;20303;-89
2022/09/05 04:48:59;;;;;;;6.07;2.25;;;18.60;83.50;;;;;;2089838;28;20142;-88
2022/09/05 04:50:23;;;;;;;6.03;2.20;;;18.60;83.60;;;;;;2094301;28;20327;-89
2022/09/05 04:51:30;;;;;;;4.22;1.70;;;18.60;83.50;;;;;;2094645;28;20280;-89
2022/09/05 04:52:50;;;;;;;6.63;1.48;;;18.60;83.60;;;;;;2076534;28;20263;-89
2022/09/05 04:54:14;;;;;;;5.60;1.60;;;18.60;83.60;;;;;;2088684;28;20254;-89
2022/09/05 04:55:44;;;;;;;8.02;2.03;;;18.60;83.60;;;;;;2094181;28;20258;-89
2022/09/05 04:56:49;;;;;;;9.02;1.40;;;18.60;83.50;;;;;;2084545;28;20269;-90
2022/09/05 04:58:11;;;;;;;4.38;1.40;;;18.60;83.60;;;;;;2084490;28;20278;-89
2022/09/05 04:59:30;;;;;;;7.18;1.70;;;18.60;83.50;;;;;;2101611;28;20300;-89
2022/09/05 05:00:41;;;;;;;5.13;1.33;;;18.50;83.50;;;;;;2091006;28;20298;-89
2022/09/05 05:01:59;;;;;;;6.25;1.42;;;18.50;83.60;;;;;;2077566;28;20264;-89
2022/09/05 05:03:13;;;;;;;5.32;1.75;;;18.50;83.60;;;;;;2101093;28;20273;-89
2022/09/05 05:04:19;;;;;;;5.50;1.60;;;18.50;83.60;;;;;;2085992;28;20278;-89
2022/09/05 05:05:44;;;;;;;6.10;1.50;;;18.50;83.60;;;;;;2077564;28;20757;-89
2022/09/05 05:06:54;;;;;;;5.57;1.60;;;18.50;83.70;;;;;;2056936;28;20310;-89
2022/09/05 05:08:00;;;;;;;7.32;1.88;;;18.50;83.70;;;;;;2091126;28;20652;-89
2022/09/05 05:09:12;;;;;;;7.55;1.83;;;18.50;83.60;;;;;;2091448;28;20623;-89
2022/09/05 05:10:41;;;;;;;5.03;1.35;;;18.40;83.50;;;;;;2085238;28;20310;-89
2022/09/05 05:11:52;;;;;;;4.20;1.60;;;18.40;83.70;;;;;;2086714;28;20174;-89
2022/09/05 05:13:22;;;;;;;3.80;1.20;;;18.40;83.60;;;;;;2092853;28;20353;-89
2022/09/05 05:14:48;;;;;;;8.23;1.73;;;18.40;83.90;;;;;;2101430;28;20297;-89
2022/09/05 05:15:56;;;;;;;5.13;1.95;;;18.40;83.60;;;;;;2093865;28;20708;-89
2022/09/05 05:17:07;;;;;;;4.15;1.38;;;18.50;83.70;;;;;;2076765;28;20270;-89
2022/09/05 05:18:28;;;;;;;12.55;2.20;;;18.40;83.70;;;;;;2077568;28;20310;-90
2022/09/05 05:19:46;;;;;;;7.28;1.85;;;18.40;83.80;;;;;;2085599;28;20274;-89
2022/09/05 05:21:03;;;;;;;4.25;1.50;;;18.40;83.80;;;;;;2084408;28;20349;-89
2022/09/05 05:22:05;;;;;;;5.05;1.70;;;18.40;83.90;;;;;;2093145;28;20767;-90
2022/09/05 05:23:06;;;;;;;8.18;1.75;;;18.40;83.70;;;;;;2082049;28;20317;-89
2022/09/05 05:24:12;;;;;;;5.55;1.70;;;18.40;83.70;;;;;;2087368;28;20254;-89
2022/09/05 05:25:13;;;;;;;2.88;1.55;;;18.40;83.60;;;;;;2091811;28;20439;-91
2022/09/05 05:26:31;;;;;;;4.32;1.60;;;18.40;83.70;;;;;;2091193;28;20250;-90
2022/09/05 05:28:20;;;;;;;5.65;1.35;;;18.40;83.70;;;;;;2089638;28;20031;-89
2022/09/05 05:29:42;;;;;;;5.20;1.50;;;18.40;83.80;;;;;;2095792;28;20699;-89
2022/09/05 05:30:42;;;;;;;6.45;1.75;;;18.40;83.70;;;;;;2107575;28;20271;-88
2022/09/05 05:31:51;;;;;;;6.43;1.60;;;18.40;83.70;;;;;;2098623;28;20280;-88
2022/09/05 05:32:54;;;;;;;6.57;1.83;;;18.40;83.60;;;;;;2084400;28;20112;-88
2022/09/05 05:34:00;;;;;;;5.68;1.60;;;18.40;83.60;;;;;;2091409;28;20277;-89
2022/09/05 05:35:08;;;;;;;8.18;1.60;;;18.40;83.60;;;;;;2097514;28;20273;-87
2022/09/05 05:36:21;;;;;;;5.72;1.58;;;18.40;83.60;;;;;;2091693;28;20293;-88
2022/09/05 05:37:39;;;;;;;6.20;1.70;;;18.30;83.60;;;;;;2091997;28;20743;-88
2022/09/05 05:38:53;;;;;;;4.47;1.75;;;18.30;83.70;;;;;;2097699;28;20343;-88
2022/09/05 05:40:07;;;;;;;7.70;1.98;;;18.30;83.80;;;;;;2090002;28;20262;-88
2022/09/05 05:41:45;;;;;;;4.32;1.48;;;18.30;83.70;;;;;;2084405;28;20274;-89
2022/09/05 05:42:46;;;;;;;6.07;1.65;;;18.30;83.70;;;;;;2091603;28;20265;-88
2022/09/05 05:43:49;;;;;;;5.97;1.70;;;18.30;83.70;;;;;;2089200;28;20809;-88
2022/09/05 05:44:57;;;;;;;6.65;2.28;;;18.30;83.70;;;;;;2084468;28;20025;-89
2022/09/05 05:45:59;;;;;;;8.10;1.65;;;18.30;83.70;;;;;;2107506;28;20339;-89
2022/09/05 05:47:17;;;;;;;7.35;2.10;;;18.30;83.60;;;;;;2093647;28;20345;-88
2022/09/05 05:48:17;;;;;;;8.77;1.52;;;18.30;83.70;;;;;;2086729;28;20273;-88
2022/09/05 05:49:41;;;;;;;3.22;1.58;;;18.30;83.70;;;;;;2081290;28;20613;-88
2022/09/05 05:51:05;;;;;;;5.28;1.45;;;18.30;83.70;;;;;;2055936;28;20146;-88
2022/09/05 05:52:33;;;;;;;6.53;1.98;;;18.30;83.60;;;;;;2088319;28;20373;-88
2022/09/05 05:53:59;;;;;;;5.18;1.27;;;18.30;83.60;;;;;;2090003;28;20333;-88
2022/09/05 05:55:42;;;;;;;9.00;1.60;;;18.20;83.60;;;;;;2092379;28;20322;-88
2022/09/05 05:57:13;;;;;;;9.98;2.13;;;18.20;83.60;;;;;;2070330;28;20746;-88
2022/09/05 05:58:31;;;;;;;5.75;1.35;;;18.20;83.70;;;;;;2090445;28;20043;-88
2022/09/05 06:00:00;;;;;;;8.15;1.73;;;18.20;83.80;;;;;;2090692;28;20262;-88
2022/09/05 06:01:22;;;;;;;6.50;1.90;;;18.20;83.90;;;;;;2081872;28;20612;-88
2022/09/05 06:03:01;;;;;;;9.52;2.05;;;18.20;83.90;;;;;;2087120;28;20254;-88
2022/09/05 06:04:19;;;;;;;9.05;1.58;;;18.20;83.70;;;;;;2092877;28;20687;-88
2022/09/05 06:05:38;;;;;;;7.70;1.48;;;18.20;83.70;;;;;;2084999;28;20263;-88
2022/09/05 06:07:16;;;;;;;6.20;1.67;;;18.20;83.70;;;;;;2087622;28;20278;-88
2022/09/05 06:08:59;;;;;;;6.57;1.85;;;18.20;83.70;;;;;;2070561;28;20264;-88
2022/09/05 06:10:24;;;;;;;5.70;1.70;;;18.20;83.70;;;;;;2055306;28;20320;-88
2022/09/05 06:11:46;;;;;;;6.45;2.03;;;18.10;83.70;;;;;;2085647;28;20371;-88
2022/09/05 06:13:10;;;;;;;3.65;1.50;;;18.20;83.70;;;;;;2095641;28;20315;-88
2022/09/05 06:14:26;;;;;;;8.00;1.90;;;18.20;83.70;;;;;;2093416;28;20097;-88
2022/09/05 06:15:42;;;;;;;5.82;1.85;;;18.20;83.70;;;;;;2086649;28;20271;-88
2022/09/05 06:16:52;;;;;;;6.30;1.77;;;18.20;83.80;;;;;;2094643;28;20265;-89
2022/09/05 06:18:20;;;;;;;5.47;1.48;;;18.20;83.80;;;;;;2091674;28;20270;-88
2022/09/05 06:19:33;;;;;;;6.57;1.95;;;18.20;83.80;;;;;;2094383;28;20269;-88
2022/09/05 06:20:51;;;;;;;6.65;2.50;;;18.20;83.80;;;;;;2092342;28;20376;-88
2022/09/05 06:22:07;;;;;;;6.05;2.00;;;18.20;83.90;;;;;;2084733;28;20459;-88
2022/09/05 06:23:45;;;;;;;5.30;2.13;;;18.20;83.80;;;;;;2085774;28;20321;-88
2022/09/05 06:25:19;;;;;;;5.35;1.50;;;18.20;83.70;;;;;;2098714;28;20269;-88
2022/09/05 06:26:43;;;;;;;7.57;1.70;;;18.20;83.90;;;;;;2092655;28;20265;-89
2022/09/05 06:27:59;;;;;;;8.20;2.10;;;18.10;83.90;;;;;;2093727;28;20265;-90
2022/09/05 06:29:36;;;;;;;9.93;1.85;;;18.20;83.90;;;;;;2088437;28;20266;-90
2022/09/05 06:30:52;;;;;;;6.30;2.03;;;18.10;83.90;;;;;;2091954;28;20457;-90
2022/09/05 06:32:04;;;;;;;5.68;1.70;;;18.10;83.90;;;;;;2084139;28;20263;-91
2022/09/05 06:33:13;;;;;;;;;;;18.10;84.00;;;;;;2090890;28;20289;-90
2022/09/05 06:34:51;;;;;;;8.00;2.30;;;18.10;84.00;;;;;;2090471;28;20345;-90
2022/09/05 06:36:00;;;;;;;5.00;2.10;;;18.10;84.00;;;;;;2095958;28;20273;-90
2022/09/05 06:37:44;;;;;;;5.80;1.60;;;18.10;84.10;;;;;;2090393;28;20267;-90
2022/09/05 06:39:00;;;;;;;7.78;1.67;;;18.10;84.20;;;;;;2079618;28;20632;-89
2022/09/05 06:40:10;;;;;;;5.65;1.65;;;18.10;84.30;;;;;;2090297;28;20250;-90
2022/09/05 06:41:28;;;;;;;11.93;2.20;;;18.10;84.30;;;;;;2091603;28;20589;-90
2022/09/05 06:42:52;;;;;;;7.32;2.00;;;18.10;84.30;;;;;;2085785;28;20258;-90
2022/09/05 06:44:11;;;;;;;9.63;1.52;;;18.10;84.30;;;;;;2093101;28;20293;-90
2022/09/05 06:45:31;;;;;;;9.77;2.40;;;18.10;84.30;;;;;;2084620;28;20262;-91
2022/09/05 06:46:37;;;;;;;6.90;1.85;;;18.20;84.40;;;;;;2086174;28;20263;-89
2022/09/05 06:47:43;;;;;;;7.35;1.98;;;18.20;84.40;;;;;;2091217;28;20289;-90
2022/09/05 06:49:13;;;;;;;6.07;2.58;;;18.20;84.40;;;;;;2101791;28;20769;-90
2022/09/05 06:50:18;;;;;;;8.25;2.05;;;18.20;84.40;;;;;;2098961;28;20265;-90
2022/09/05 06:51:31;;;;;;;9.40;1.92;;;18.20;84.40;;;;;;2083408;28;20274;-90